Time;durP1;ratioP1;P1;durP2;ratioP2;P2;SDS_P1;SDS_P2;PMS_P1;PMS_P2;Temp;Humidity;BMP_temperature;BMP_pressure;BME280_temperature;BME280_humidity;BME280_pressure;Samples;Min_cycle;Max_cycle;Signal;HPM_P1;HPM_P2
2021/01/16 00:00:50;;;;;;;14.03;9.10;;;-0.80;71.30;;;;;;5052290;28;20450;-80
2021/01/16 00:03:17;;;;;;;12.10;8.70;;;-0.80;71.30;;;;;;5053095;28;20448;-78
2021/01/16 00:05:44;;;;;;;12.70;9.00;;;-0.80;71.10;;;;;;5049746;28;20913;-80
2021/01/16 00:08:14;;;;;;;13.07;9.70;;;-0.80;70.90;;;;;;5049882;28;20450;-78
2021/01/16 00:10:42;;;;;;;14.13;9.50;;;-0.80;70.70;;;;;;5048337;28;20473;-82
2021/01/16 00:13:11;;;;;;;13.70;8.80;;;-0.80;71.10;;;;;;5051229;28;20480;-83
2021/01/16 00:15:39;;;;;;;13.33;9.37;;;-0.90;70.60;;;;;;5049212;28;20452;-78
2021/01/16 00:18:08;;;;;;;13.90;9.43;;;-0.70;70.80;;;;;;5047185;28;20902;-80
2021/01/16 00:20:38;;;;;;;14.80;9.60;;;-0.80;70.40;;;;;;5051404;28;20487;-79
2021/01/16 00:23:04;;;;;;;15.33;9.17;;;-0.80;70.70;;;;;;5051698;28;20533;-80
2021/01/16 00:25:34;;;;;;;12.30;9.03;;;-0.80;71.00;;;;;;5059176;28;20445;-78
2021/01/16 00:28:01;;;;;;;13.50;9.93;;;-0.80;71.20;;;;;;5048328;28;20457;-77
2021/01/16 00:30:28;;;;;;;13.53;9.50;;;-0.90;71.10;;;;;;5052566;28;20508;-78
2021/01/16 00:32:55;;;;;;;13.80;9.20;;;-0.80;71.50;;;;;;5053324;28;20464;-78
2021/01/16 00:35:24;;;;;;;13.27;9.43;;;-0.90;71.30;;;;;;5048574;28;21062;-80
2021/01/16 00:37:52;;;;;;;13.03;9.63;;;-0.90;71.40;;;;;;5053643;28;20489;-78
2021/01/16 00:40:22;;;;;;;13.17;9.53;;;-0.90;71.40;;;;;;5047820;28;20451;-78
2021/01/16 00:42:50;;;;;;;11.30;9.40;;;-0.90;71.30;;;;;;5048586;28;20446;-78
2021/01/16 00:45:19;;;;;;;15.43;10.03;;;-0.90;71.40;;;;;;5047949;28;20441;-79
2021/01/16 00:47:46;;;;;;;16.73;10.80;;;-0.80;71.50;;;;;;5050255;28;20811;-83
2021/01/16 00:50:15;;;;;;;16.53;10.90;;;-0.90;71.20;;;;;;5052671;28;20491;-78
2021/01/16 00:52:44;;;;;;;12.73;9.17;;;-0.90;71.00;;;;;;5052084;28;20473;-82
2021/01/16 00:55:11;;;;;;;15.40;10.03;;;-0.90;71.10;;;;;;5050986;28;20445;-80
2021/01/16 00:57:38;;;;;;;13.50;9.00;;;-0.90;71.10;;;;;;5046242;28;20522;-80
2021/01/16 01:00:07;;;;;;;12.27;8.80;;;-0.90;71.20;;;;;;5052789;28;20441;-79
2021/01/16 01:02:34;;;;;;;14.70;10.00;;;-0.90;71.00;;;;;;5053736;28;20478;-79
2021/01/16 01:05:00;;;;;;;13.30;9.20;;;-0.80;70.70;;;;;;5051516;28;21026;-81
2021/01/16 01:07:27;;;;;;;13.13;9.10;;;-0.90;70.90;;;;;;5050122;28;20470;-82
2021/01/16 01:09:54;;;;;;;11.17;8.53;;;-0.80;71.20;;;;;;5047567;28;20474;-78
2021/01/16 01:12:24;;;;;;;12.63;10.13;;;-0.80;71.10;;;;;;5052883;28;20486;-79
2021/01/16 01:14:51;;;;;;;15.20;9.10;;;-0.80;71.10;;;;;;5052262;28;20501;-78
2021/01/16 01:17:18;;;;;;;13.20;8.77;;;-0.80;71.10;;;;;;5049654;28;20461;-81
2021/01/16 01:19:47;;;;;;;13.43;9.77;;;-0.80;71.40;;;;;;5054805;28;20873;-79
2021/01/16 01:22:14;;;;;;;12.07;8.50;;;-0.80;70.70;;;;;;5048105;28;20816;-79
2021/01/16 01:24:40;;;;;;;13.77;9.53;;;-0.80;71.30;;;;;;5052419;28;20496;-77
2021/01/16 01:27:08;;;;;;;14.53;9.90;;;-0.80;71.10;;;;;;5051376;28;20467;-79
2021/01/16 01:29:34;;;;;;;13.50;9.37;;;-0.80;70.90;;;;;;5050539;28;20469;-79
2021/01/16 01:32:04;;;;;;;12.27;9.17;;;-0.80;70.90;;;;;;5049382;28;20503;-84
2021/01/16 01:34:31;;;;;;;13.97;9.50;;;-0.80;71.20;;;;;;5056803;28;20470;-79
2021/01/16 01:37:00;;;;;;;14.63;10.20;;;-0.80;71.20;;;;;;5049822;28;20449;-79
2021/01/16 01:39:27;;;;;;;15.10;9.77;;;-0.80;71.10;;;;;;5052997;28;20224;-79
2021/01/16 01:41:53;;;;;;;15.40;10.57;;;-0.80;71.10;;;;;;5053161;28;20551;-79
2021/01/16 01:44:21;;;;;;;15.17;9.60;;;-0.80;71.20;;;;;;5050783;28;21022;-79
2021/01/16 01:46:47;;;;;;;14.53;10.17;;;-0.80;71.10;;;;;;5053836;28;20715;-79
2021/01/16 01:49:14;;;;;;;15.47;9.83;;;-0.90;70.60;;;;;;5051060;28;20510;-80
2021/01/16 01:51:42;;;;;;;15.20;9.40;;;-0.80;71.20;;;;;;5050694;28;20457;-79
2021/01/16 01:54:10;;;;;;;16.00;10.67;;;-0.80;70.90;;;;;;5049654;28;20462;-79
2021/01/16 01:56:38;;;;;;;15.77;10.77;;;-0.90;71.10;;;;;;5048936;28;20445;-79
2021/01/16 01:59:07;;;;;;;13.60;10.60;;;-0.80;71.30;;;;;;5048099;28;20488;-78
2021/01/16 02:04:11;;;;;;;18.00;10.87;;;-0.90;71.00;;;;;;5099167;27;20590;-79
2021/01/16 02:06:37;;;;;;;19.07;10.90;;;-0.80;71.40;;;;;;5087799;28;20465;-79
2021/01/16 02:09:04;;;;;;;18.77;12.73;;;-0.80;71.50;;;;;;5094776;28;20445;-79
2021/01/16 02:11:31;;;;;;;17.43;11.67;;;-0.80;71.80;;;;;;5089893;28;20436;-78
2021/01/16 02:13:58;;;;;;;14.67;10.57;;;-0.80;71.10;;;;;;5080919;28;20494;-79
2021/01/16 02:16:33;;;;;;;17.50;11.87;;;-0.80;71.30;;;;;;5082867;28;20458;-78
2021/01/16 02:19:02;;;;;;;17.13;11.60;;;-0.80;71.10;;;;;;5079777;28;20450;-78
2021/01/16 02:21:32;;;;;;;17.63;12.00;;;-0.80;71.20;;;;;;5082199;28;20485;-80
2021/01/16 02:24:04;;;;;;;18.93;12.97;;;-0.70;71.70;;;;;;5083776;28;20519;-81
2021/01/16 02:26:50;;;;;;;17.60;12.50;;;-0.70;71.60;;;;;;5083167;28;20448;-80
2021/01/16 02:29:18;;;;;;;19.80;12.57;;;-0.70;71.40;;;;;;5080125;28;21021;-82
2021/01/16 02:31:48;;;;;;;21.30;12.50;;;-0.70;71.40;;;;;;5083786;28;20478;-79
2021/01/16 02:34:18;;;;;;;18.53;12.23;;;-0.70;71.70;;;;;;5081488;28;20514;-79
2021/01/16 02:37:32;;;;;;;18.70;12.80;;;-0.70;71.70;;;;;;5075188;28;20501;-82
2021/01/16 02:40:13;;;;;;;18.80;12.73;;;-0.70;71.80;;;;;;5080971;28;20550;-78
2021/01/16 02:42:51;;;;;;;21.93;13.50;;;-0.70;71.40;;;;;;5082574;28;20461;-79
2021/01/16 02:45:25;;;;;;;20.63;13.70;;;-0.70;71.60;;;;;;5077621;28;20440;-79
2021/01/16 02:48:01;;;;;;;19.87;13.60;;;-0.70;71.50;;;;;;5075489;28;20573;-79
2021/01/16 02:50:29;;;;;;;17.67;12.80;;;-0.70;71.70;;;;;;5075499;28;20468;-78
2021/01/16 02:52:58;;;;;;;18.47;13.33;;;-0.70;72.00;;;;;;5079698;28;20452;-79
2021/01/16 02:55:28;;;;;;;18.33;12.80;;;-0.70;71.60;;;;;;5075351;28;20502;-81
2021/01/16 02:57:55;;;;;;;20.33;13.27;;;-0.70;72.10;;;;;;5076046;28;20436;-78
2021/01/16 03:00:23;;;;;;;22.13;14.30;;;-0.70;72.40;;;;;;5078384;28;20523;-78
2021/01/16 03:02:50;;;;;;;25.00;14.67;;;-0.80;71.80;;;;;;5075063;28;20473;-79
2021/01/16 03:05:17;;;;;;;21.20;14.47;;;-0.80;72.10;;;;;;5081257;28;20939;-78
2021/01/16 03:07:48;;;;;;;20.50;12.90;;;-0.80;72.00;;;;;;5087930;28;20926;-77
2021/01/16 03:10:15;;;;;;;17.97;12.60;;;-0.80;72.10;;;;;;5101444;28;20437;-78
2021/01/16 03:12:42;;;;;;;19.33;13.30;;;-0.80;72.20;;;;;;5078950;28;20472;-77
2021/01/16 03:15:12;;;;;;;19.03;13.80;;;-0.70;72.30;;;;;;5068882;28;20535;-77
2021/01/16 03:17:50;;;;;;;17.10;12.07;;;-0.70;72.20;;;;;;5063845;28;20936;-78
2021/01/16 03:20:21;;;;;;;19.00;13.57;;;-0.70;72.30;;;;;;5080761;28;20492;-80
2021/01/16 03:22:50;;;;;;;19.27;14.07;;;-0.70;72.30;;;;;;5078847;28;20487;-77
2021/01/16 03:25:20;;;;;;;23.97;14.13;;;-0.70;72.40;;;;;;5080543;28;20480;-77
2021/01/16 03:27:46;;;;;;;18.67;13.10;;;0.60;73.40;;;;;;5072047;28;20539;-76
2021/01/16 03:30:14;;;;;;;21.67;12.97;;;-0.70;72.00;;;;;;5072218;28;20966;-76
2021/01/16 03:32:40;;;;;;;20.40;13.37;;;-0.70;72.20;;;;;;5063928;28;21034;-76
2021/01/16 03:35:11;;;;;;;20.40;14.73;;;-0.70;72.00;;;;;;5067916;28;20465;-78
2021/01/16 03:37:38;;;;;;;19.97;13.60;;;-0.70;71.90;;;;;;5065884;28;20471;-77
2021/01/16 03:40:07;;;;;;;20.87;13.53;;;-0.70;71.90;;;;;;5065654;28;21019;-78
2021/01/16 03:42:34;;;;;;;22.57;14.23;;;-0.70;72.00;;;;;;5067148;28;20508;-77
2021/01/16 03:45:01;;;;;;;24.00;15.70;;;-0.70;72.20;;;;;;5065116;28;22366;-77
2021/01/16 03:47:30;;;;;;;19.20;14.50;;;-0.70;71.70;;;;;;5063643;28;20468;-77
2021/01/16 03:49:58;;;;;;;19.57;13.40;;;-0.80;71.70;;;;;;5069543;28;20463;-78
2021/01/16 03:52:31;;;;;;;21.00;13.63;;;-0.70;72.10;;;;;;5064496;28;20446;-77
2021/01/16 03:54:57;;;;;;;16.80;12.90;;;-0.70;72.20;;;;;;5068148;28;20453;-79
2021/01/16 03:57:25;;;;;;;17.97;13.20;;;-0.80;72.00;;;;;;5072288;28;20461;-77
2021/01/16 03:59:51;;;;;;;18.27;13.00;;;-0.80;72.00;;;;;;5066330;28;20493;-77
2021/01/16 04:02:18;;;;;;;21.37;13.90;;;-0.80;72.00;;;;;;5066892;28;20563;-78
2021/01/16 04:04:45;;;;;;;21.83;13.87;;;-0.70;72.10;;;;;;5069595;28;20440;-77
2021/01/16 04:07:11;;;;;;;19.70;13.77;;;-0.80;71.80;;;;;;5067454;28;20506;-81
2021/01/16 04:09:42;;;;;;;19.93;12.83;;;-0.80;71.90;;;;;;5060870;28;20533;-79
2021/01/16 04:12:09;;;;;;;18.60;13.70;;;-0.80;72.20;;;;;;5063642;28;20481;-79
2021/01/16 04:14:36;;;;;;;21.97;13.90;;;-0.80;72.20;;;;;;5062152;28;20463;-81
2021/01/16 04:17:04;;;;;;;20.40;14.47;;;-0.80;72.00;;;;;;5066738;28;20518;-78
2021/01/16 04:19:31;;;;;;;23.53;14.73;;;-0.80;72.20;;;;;;5063776;28;20460;-79
2021/01/16 04:21:57;;;;;;;20.73;12.50;;;-0.90;72.40;;;;;;5066128;28;20797;-80
2021/01/16 04:24:24;;;;;;;19.80;12.40;;;-0.90;72.50;;;;;;5061351;28;20464;-79
2021/01/16 04:26:52;;;;;;;20.93;14.40;;;-0.90;72.50;;;;;;5062884;28;20536;-78
2021/01/16 04:29:18;;;;;;;23.73;14.67;;;-0.90;72.70;;;;;;5065310;28;20503;-79
2021/01/16 04:31:45;;;;;;;19.80;13.20;;;-0.80;72.80;;;;;;5068722;28;20536;-79
2021/01/16 04:34:14;;;;;;;21.03;14.63;;;-0.90;72.60;;;;;;5066016;28;20472;-79
2021/01/16 04:36:40;;;;;;;22.13;14.00;;;-0.90;72.70;;;;;;5066810;28;20451;-79
2021/01/16 04:39:07;;;;;;;19.60;13.40;;;-0.90;72.80;;;;;;5067666;28;20471;-79
2021/01/16 04:41:37;;;;;;;22.60;14.17;;;-0.90;73.00;;;;;;5064704;28;20458;-79
2021/01/16 04:44:05;;;;;;;19.80;13.70;;;-0.90;72.60;;;;;;5066435;28;20468;-80
2021/01/16 04:46:32;;;;;;;17.33;12.33;;;-0.80;72.50;;;;;;5066780;28;20439;-79
2021/01/16 04:49:01;;;;;;;19.73;13.93;;;-0.80;72.90;;;;;;5068330;28;20583;-79
2021/01/16 04:51:31;;;;;;;22.57;13.97;;;-0.80;72.80;;;;;;5064005;28;21061;-79
2021/01/16 04:54:00;;;;;;;21.80;13.27;;;-0.90;72.40;;;;;;5069905;28;20936;-80
2021/01/16 04:56:29;;;;;;;17.83;11.73;;;-0.90;72.20;;;;;;5066760;28;20826;-78
2021/01/16 04:58:56;;;;;;;23.43;13.20;;;-0.90;72.10;;;;;;5069940;28;20829;-80
2021/01/16 05:01:28;;;;;;;20.70;13.00;;;-0.90;72.20;;;;;;5067879;28;20450;-81
2021/01/16 05:03:56;;;;;;;21.30;13.40;;;-0.90;71.80;;;;;;5070324;28;20500;-81
2021/01/16 05:06:24;;;;;;;20.50;12.20;;;-1.00;71.90;;;;;;5070444;28;20964;-79
2021/01/16 05:08:53;;;;;;;19.40;12.27;;;-1.00;71.40;;;;;;5072689;28;20536;-80
2021/01/16 05:11:34;;;;;;;24.37;12.73;;;-1.00;71.60;;;;;;5078484;28;20454;-80
2021/01/16 05:14:11;;;;;;;18.50;11.20;;;-1.00;72.00;;;;;;5073857;28;20521;-78
2021/01/16 05:16:50;;;;;;;16.77;11.87;;;-1.10;71.70;;;;;;5063833;28;20497;-79
2021/01/16 05:19:19;;;;;;;16.87;11.00;;;-1.10;71.70;;;;;;5073415;28;20453;-78
2021/01/16 05:21:46;;;;;;;21.87;13.07;;;-1.20;71.60;;;;;;5058613;28;20599;-81
2021/01/16 05:24:15;;;;;;;19.20;11.90;;;-1.10;71.70;;;;;;5063251;28;20468;-80
2021/01/16 05:27:00;;;;;;;17.17;12.10;;;-1.10;71.70;;;;;;5066492;28;20457;-79
2021/01/16 05:29:27;;;;;;;18.67;11.33;;;-1.20;71.50;;;;;;5065024;28;20441;-79
2021/01/16 05:31:59;;;;;;;17.20;10.70;;;-1.10;71.80;;;;;;5060785;28;20848;-78
2021/01/16 05:34:27;;;;;;;14.43;10.47;;;-1.20;71.70;;;;;;5060856;28;20442;-78
2021/01/16 05:36:56;;;;;;;16.37;11.20;;;-1.10;71.80;;;;;;5059054;28;20985;-79
2021/01/16 05:39:25;;;;;;;17.53;11.73;;;-1.20;71.70;;;;;;5061493;28;20457;-78
2021/01/16 05:41:59;;;;;;;17.20;11.60;;;-1.20;71.40;;;;;;5061081;28;20475;-79
2021/01/16 05:44:27;;;;;;;16.77;11.03;;;-1.20;71.60;;;;;;5064405;28;20453;-80
2021/01/16 05:46:55;;;;;;;17.70;11.80;;;-1.20;71.50;;;;;;5074724;28;20460;-84
2021/01/16 05:49:23;;;;;;;16.33;11.03;;;-1.20;71.70;;;;;;5069110;28;20480;-79
2021/01/16 05:51:50;;;;;;;18.70;12.80;;;-1.20;71.50;;;;;;5067412;28;20539;-78
2021/01/16 05:54:19;;;;;;;16.33;12.33;;;-1.20;71.70;;;;;;5057941;28;20450;-78
2021/01/16 05:56:47;;;;;;;21.40;12.00;;;-1.20;71.50;;;;;;5062083;28;20453;-80
2021/01/16 05:59:19;;;;;;;17.23;12.70;;;-1.20;71.80;;;;;;5066338;28;20460;-80
2021/01/16 06:01:48;;;;;;;19.97;12.63;;;-1.20;72.00;;;;;;5067886;28;20998;-81
2021/01/16 06:04:22;;;;;;;16.60;11.60;;;-1.10;71.90;;;;;;5065045;28;20509;-79
2021/01/16 06:06:50;;;;;;;18.20;12.33;;;-1.10;72.10;;;;;;5070537;28;20455;-80
2021/01/16 06:09:19;;;;;;;14.80;11.10;;;-1.20;71.40;;;;;;5074263;28;20457;-80
2021/01/16 06:11:47;;;;;;;18.23;11.60;;;-1.20;71.50;;;;;;5067520;28;20479;-79
2021/01/16 06:14:14;;;;;;;16.83;11.93;;;-1.20;71.50;;;;;;5065935;28;20900;-80
2021/01/16 06:16:48;;;;;;;19.40;11.97;;;-1.20;71.30;;;;;;5064119;28;20439;-78
2021/01/16 06:19:25;;;;;;;20.07;11.87;;;-1.10;71.30;;;;;;5069383;28;20478;-79
2021/01/16 06:21:54;;;;;;;18.50;12.67;;;-1.10;71.60;;;;;;5064862;28;20450;-80
2021/01/16 06:24:22;;;;;;;23.00;12.87;;;-1.10;71.50;;;;;;5060402;28;20480;-80
2021/01/16 06:26:55;;;;;;;15.80;11.70;;;-1.20;71.00;;;;;;5061890;28;20454;-79
2021/01/16 06:29:42;;;;;;;14.87;10.90;;;-1.20;71.40;;;;;;5060780;28;20488;-79
2021/01/16 06:32:10;;;;;;;16.27;10.90;;;-1.20;71.00;;;;;;5062992;28;20454;-80
2021/01/16 06:34:39;;;;;;;17.30;11.30;;;-1.20;70.40;;;;;;5059079;28;20450;-79
2021/01/16 06:37:13;;;;;;;15.27;10.30;;;-1.30;70.30;;;;;;5057630;28;20487;-79
2021/01/16 06:39:41;;;;;;;15.00;11.00;;;-1.30;70.30;;;;;;5061334;28;20520;-79
2021/01/16 06:42:11;;;;;;;15.77;11.87;;;-1.30;70.20;;;;;;5062401;28;20454;-79
2021/01/16 06:44:39;;;;;;;16.80;10.10;;;-1.30;69.30;;;;;;5065052;28;20452;-79
2021/01/16 06:47:07;;;;;;;17.90;10.20;;;-1.30;69.70;;;;;;5063794;28;20476;-80
2021/01/16 06:49:35;;;;;;;17.80;11.00;;;-1.30;69.10;;;;;;5063862;28;20749;-80
2021/01/16 06:52:04;;;;;;;16.40;10.37;;;-1.30;69.30;;;;;;5063734;28;20472;-81
2021/01/16 06:54:32;;;;;;;15.80;9.90;;;-1.30;68.30;;;;;;5068852;28;20823;-80
2021/01/16 06:57:09;;;;;;;14.43;9.30;;;-1.40;68.40;;;;;;5065986;28;20862;-79
2021/01/16 06:59:38;;;;;;;14.83;8.70;;;-1.40;68.30;;;;;;5067736;28;20449;-79
2021/01/16 07:02:25;;;;;;;16.50;9.50;;;-1.40;68.20;;;;;;5062714;28;21094;-82
2021/01/16 07:04:52;;;;;;;14.97;9.70;;;-1.40;67.90;;;;;;5067583;28;20445;-79
2021/01/16 07:07:28;;;;;;;14.43;9.50;;;-1.50;67.60;;;;;;5060120;28;20452;-79
2021/01/16 07:09:57;;;;;;;16.33;9.70;;;-1.40;67.60;;;;;;5063497;28;20459;-80
2021/01/16 07:12:24;;;;;;;12.90;9.40;;;-1.40;67.70;;;;;;5077125;28;20548;-83
2021/01/16 07:14:50;;;;;;;11.90;9.20;;;-1.40;67.40;;;;;;5087568;28;20457;-80
2021/01/16 07:17:20;;;;;;;13.40;8.67;;;-1.40;67.80;;;;;;5085373;28;20457;-78
2021/01/16 07:19:47;;;;;;;11.20;8.60;;;-1.40;67.60;;;;;;5078714;28;20441;-84
2021/01/16 07:22:14;;;;;;;14.47;9.87;;;-1.40;66.90;;;;;;5075458;28;20461;-78
2021/01/16 07:24:44;;;;;;;12.20;8.60;;;-1.40;66.80;;;;;;5075427;28;20449;-82
2021/01/16 07:27:14;;;;;;;15.63;9.80;;;-1.40;67.30;;;;;;5086831;28;20465;-84
2021/01/16 07:29:44;;;;;;;11.30;8.33;;;-1.40;67.10;;;;;;5091678;28;20459;-83
2021/01/16 07:32:15;;;;;;;11.30;8.20;;;-1.40;67.00;;;;;;5071756;28;20515;-78
2021/01/16 07:34:46;;;;;;;13.80;9.43;;;-1.40;67.10;;;;;;5069445;28;20440;-78
2021/01/16 07:37:13;;;;;;;11.40;8.70;;;-1.30;67.10;;;;;;5079307;28;20480;-78
2021/01/16 07:39:43;;;;;;;13.57;8.93;;;-1.30;66.80;;;;;;5068209;28;20532;-81
2021/01/16 07:42:12;;;;;;;10.30;7.40;;;-1.30;66.80;;;;;;5065045;28;20830;-78
2021/01/16 07:44:44;;;;;;;13.10;8.57;;;-1.30;66.80;;;;;;5069101;28;20538;-78
2021/01/16 07:47:21;;;;;;;14.57;9.23;;;-1.30;66.80;;;;;;5067873;28;20464;-79
2021/01/16 07:49:57;;;;;;;13.10;8.77;;;-1.30;66.50;;;;;;5068996;28;20452;-79
2021/01/16 07:52:29;;;;;;;13.10;8.70;;;-1.30;66.30;;;;;;5066935;28;20460;-79
2021/01/16 07:55:07;;;;;;;12.57;7.80;;;-1.30;66.40;;;;;;5069888;28;20562;-78
2021/01/16 07:57:35;;;;;;;12.40;8.50;;;-1.30;66.60;;;;;;5067501;28;20472;-82
2021/01/16 08:00:06;;;;;;;12.27;7.77;;;-1.20;66.80;;;;;;5066262;28;21010;-78
2021/01/16 08:02:40;;;;;;;14.63;9.47;;;-1.20;66.60;;;;;;5068762;28;21325;-79
2021/01/16 08:05:23;;;;;;;15.13;9.27;;;-1.20;66.50;;;;;;5073332;28;20439;-79
2021/01/16 08:08:14;;;;;;;13.43;8.97;;;-1.20;66.50;;;;;;5066076;28;20445;-78
2021/01/16 08:10:43;;;;;;;19.40;9.00;;;-1.10;67.10;;;;;;5066047;28;20460;-78
2021/01/16 08:13:11;;;;;;;13.40;9.47;;;-1.20;66.50;;;;;;5063599;28;20481;-79
2021/01/16 08:15:42;;;;;;;14.27;9.50;;;-1.30;66.30;;;;;;5072617;28;20488;-81
2021/01/16 08:18:17;;;;;;;14.07;8.83;;;-1.30;66.30;;;;;;5068281;28;20493;-80
2021/01/16 08:20:48;;;;;;;14.70;8.80;;;-1.30;67.10;;;;;;5081113;28;20448;-79
2021/01/16 08:23:26;;;;;;;14.53;8.00;;;-1.20;66.60;;;;;;5074659;28;20465;-78
2021/01/16 08:26:05;;;;;;;19.50;10.20;;;-1.20;66.40;;;;;;5070228;28;20445;-79
2021/01/16 08:28:38;;;;;;;14.07;8.77;;;-1.30;66.60;;;;;;5068538;28;20457;-79
2021/01/16 08:31:04;;;;;;;13.20;9.43;;;-1.10;67.50;;;;;;5077732;28;20450;-81
2021/01/16 08:33:35;;;;;;;13.83;9.00;;;-1.20;66.30;;;;;;5066318;28;20457;-80
2021/01/16 08:36:18;;;;;;;13.40;8.80;;;-1.20;66.50;;;;;;5067430;28;20464;-82
2021/01/16 08:38:45;;;;;;;12.40;8.30;;;-1.20;65.80;;;;;;5063179;28;20960;-79
2021/01/16 08:41:22;;;;;;;15.37;9.53;;;-1.20;66.20;;;;;;5061614;28;20464;-80
2021/01/16 08:43:53;;;;;;;11.93;8.43;;;-1.20;66.20;;;;;;5064416;28;20553;-80
2021/01/16 08:46:24;;;;;;;13.60;8.97;;;-1.30;66.20;;;;;;5057677;28;20465;-84
2021/01/16 08:49:02;;;;;;;16.13;9.57;;;-1.20;65.90;;;;;;5063454;28;21800;-83
2021/01/16 08:51:31;;;;;;;16.63;10.10;;;-1.10;66.30;;;;;;5061597;28;20668;-81
2021/01/16 08:54:08;;;;;;;13.87;9.00;;;-1.20;65.30;;;;;;5062082;28;20952;-79
2021/01/16 08:57:12;;;;;;;17.37;10.77;;;-1.10;66.00;;;;;;5074248;28;20456;-80
2021/01/16 08:59:39;;;;;;;12.00;8.80;;;-1.20;66.00;;;;;;5062838;28;20457;-77
2021/01/16 09:02:07;;;;;;;14.10;8.83;;;-1.20;65.70;;;;;;5067730;28;20463;-78
2021/01/16 09:04:35;;;;;;;11.50;8.07;;;-1.30;65.50;;;;;;5070407;28;20480;-85
2021/01/16 09:07:13;;;;;;;14.80;8.87;;;-1.30;65.60;;;;;;5075050;28;20455;-79
2021/01/16 09:09:40;;;;;;;16.37;9.27;;;-1.30;65.80;;;;;;5066564;28;20545;-81
2021/01/16 09:12:10;;;;;;;14.07;8.90;;;-1.20;66.10;;;;;;5059331;28;20474;-79
2021/01/16 09:14:40;;;;;;;12.83;9.43;;;-1.10;65.90;;;;;;5076304;28;21906;-84
2021/01/16 09:17:21;;;;;;;13.53;9.40;;;-1.20;65.40;;;;;;5066915;28;20477;-86
2021/01/16 09:19:56;;;;;;;14.27;9.60;;;-1.30;65.90;;;;;;5067950;28;20498;-85
2021/01/16 09:22:25;;;;;;;14.27;10.43;;;-1.30;65.80;;;;;;5064620;28;20455;-85
2021/01/16 09:24:54;;;;;;;13.00;9.10;;;-1.30;66.20;;;;;;5072886;28;20473;-87
2021/01/16 09:27:29;;;;;;;15.47;10.30;;;-1.30;66.10;;;;;;5070716;28;20462;-87
2021/01/16 09:29:57;;;;;;;11.30;8.40;;;-1.20;66.60;;;;;;5066314;28;20479;-86
2021/01/16 09:32:33;;;;;;;15.17;9.47;;;-1.10;66.40;;;;;;5066521;28;20467;-88
2021/01/16 09:35:11;;;;;;;15.30;10.47;;;-0.90;66.30;;;;;;5069040;28;20487;-87
2021/01/16 09:37:40;;;;;;;15.30;9.80;;;-0.60;67.00;;;;;;5065697;28;20444;-87
2021/01/16 09:40:13;;;;;;;15.80;10.10;;;-0.90;65.90;;;;;;5068817;28;20438;-86
2021/01/16 09:42:51;;;;;;;15.07;10.30;;;-0.90;66.20;;;;;;5066226;28;20603;-88
2021/01/16 09:45:26;;;;;;;12.93;9.33;;;-0.90;65.80;;;;;;5079891;28;20441;-85
2021/01/16 09:48:41;;;;;;;12.40;9.07;;;-0.90;65.70;;;;;;5071346;28;20545;-87
2021/01/16 09:51:10;;;;;;;17.43;10.20;;;-0.80;65.70;;;;;;5082402;28;20529;-86
2021/01/16 09:53:42;;;;;;;14.47;9.90;;;-0.80;65.30;;;;;;5075522;28;20490;-85
2021/01/16 09:56:09;;;;;;;12.77;8.80;;;-0.70;65.30;;;;;;5073937;28;20480;-88
2021/01/16 09:58:40;;;;;;;14.97;9.30;;;-0.60;64.80;;;;;;5067670;28;20462;-87
2021/01/16 10:01:21;;;;;;;15.90;11.00;;;-0.50;64.90;;;;;;5073835;28;20508;-83
2021/01/16 10:03:49;;;;;;;13.50;8.60;;;-0.30;63.60;;;;;;5083791;28;20477;-85
2021/01/16 10:06:18;;;;;;;12.60;9.33;;;-0.50;63.80;;;;;;5082572;28;20461;-83
2021/01/16 10:08:47;;;;;;;13.40;9.73;;;-0.60;64.30;;;;;;5074666;28;20556;-84
2021/01/16 10:11:35;;;;;;;14.93;9.97;;;-0.80;63.90;;;;;;5077361;28;20449;-84
2021/01/16 10:14:14;;;;;;;17.20;10.10;;;-0.40;64.30;;;;;;5075341;28;20488;-86
2021/01/16 10:16:42;;;;;;;13.60;9.30;;;-0.40;64.50;;;;;;5073641;28;20443;-85
2021/01/16 10:19:12;;;;;;;14.33;9.60;;;-0.30;64.20;;;;;;5078511;28;20490;-84
2021/01/16 10:21:52;;;;;;;15.70;10.77;;;-0.30;64.70;;;;;;5076675;28;20463;-84
2021/01/16 10:24:20;;;;;;;13.33;10.17;;;-0.10;65.00;;;;;;5070391;28;20568;-84
2021/01/16 10:26:54;;;;;;;15.47;9.50;;;-0.10;64.50;;;;;;5072958;28;20446;-86
2021/01/16 10:29:32;;;;;;;15.33;10.77;;;-0.30;64.30;;;;;;5071243;28;20454;-85
2021/01/16 10:32:19;;;;;;;17.07;10.60;;;-0.40;64.50;;;;;;5069881;28;20448;-87
2021/01/16 10:34:47;;;;;;;16.47;10.07;;;-0.40;64.80;;;;;;5069309;28;20460;-86
2021/01/16 10:37:14;;;;;;;15.90;10.50;;;-0.40;64.50;;;;;;5060740;28;20465;-86
2021/01/16 10:39:42;;;;;;;17.87;10.90;;;-0.40;65.00;;;;;;5072655;28;20457;-85
2021/01/16 10:42:14;;;;;;;14.73;11.27;;;0.00;64.50;;;;;;5072695;28;20460;-85
2021/01/16 10:44:43;;;;;;;13.07;10.27;;;-0.20;64.30;;;;;;5074112;28;20484;-86
2021/01/16 10:47:33;;;;;;;14.07;9.77;;;-0.60;64.00;;;;;;5068896;28;20465;-86
2021/01/16 10:50:07;;;;;;;16.67;10.53;;;-0.40;64.50;;;;;;5064555;28;20461;-86
2021/01/16 10:52:35;;;;;;;13.20;9.37;;;-0.40;64.30;;;;;;5072966;28;20440;-86
2021/01/16 10:55:07;;;;;;;14.67;9.80;;;-0.30;64.30;;;;;;5078765;28;20448;-84
2021/01/16 10:57:45;;;;;;;14.20;10.70;;;-0.50;64.40;;;;;;5077705;28;20515;-86
2021/01/16 11:00:15;;;;;;;13.83;10.03;;;-0.30;65.10;;;;;;5071270;28;20489;-85
2021/01/16 11:02:44;;;;;;;13.63;9.37;;;0.10;64.60;;;;;;5075454;28;20466;-83
2021/01/16 11:05:20;;;;;;;14.50;10.13;;;-0.10;63.90;;;;;;5069804;28;20455;-86
2021/01/16 11:07:49;;;;;;;15.33;10.00;;;-0.40;64.70;;;;;;5076570;28;20445;-87
2021/01/16 11:10:19;;;;;;;15.73;11.30;;;-0.50;64.30;;;;;;5080234;28;20467;-86
2021/01/16 11:12:48;;;;;;;14.17;10.63;;;-0.50;64.50;;;;;;5085934;28;20484;-88
2021/01/16 11:15:26;;;;;;;14.30;9.60;;;-0.50;64.50;;;;;;5087101;28;20455;-87
2021/01/16 11:17:56;;;;;;;16.33;11.53;;;-0.30;64.70;;;;;;5089009;28;20490;-88
2021/01/16 11:20:31;;;;;;;15.17;10.33;;;-0.40;64.80;;;;;;5090791;28;20475;-87
2021/01/16 11:23:34;;;;;;;18.00;10.90;;;-0.40;64.60;;;;;;5083821;28;20510;-85
2021/01/16 11:26:10;;;;;;;14.83;11.00;;;-0.40;64.30;;;;;;5026791;28;20457;-84
2021/01/16 11:28:53;;;;;;;16.70;9.90;;;-0.50;63.80;;;;;;5060515;28;20433;-86
2021/01/16 11:31:45;;;;;;;19.00;11.03;;;-0.20;63.80;;;;;;5083757;28;20449;-87
2021/01/16 11:34:26;;;;;;;15.27;9.73;;;-0.20;62.50;;;;;;5087645;28;20462;-88
2021/01/16 11:37:02;;;;;;;13.23;9.47;;;-0.30;60.10;;;;;;5081339;28;20493;-86
2021/01/16 11:39:57;;;;;;;14.47;9.70;;;-0.10;60.60;;;;;;5075684;28;20516;-87
2021/01/16 11:42:53;;;;;;;12.13;9.53;;;0.10;60.10;;;;;;5081039;28;20442;-85
2021/01/16 11:45:26;;;;;;;14.30;9.53;;;-0.10;59.70;;;;;;5080292;28;20825;-85
2021/01/16 11:47:59;;;;;;;15.47;10.77;;;-0.10;59.60;;;;;;5085569;28;20532;-85
2021/01/16 11:56:04;;;;;;;13.30;10.27;;;-0.60;60.40;;;;;;5080817;28;20449;-85
2021/01/16 11:58:36;;;;;;;13.10;9.67;;;;;;;;;;5076901;28;20462;-85
2021/01/16 12:01:08;;;;;;;19.57;10.83;;;-0.60;60.20;;;;;;5080927;28;20476;-84
2021/01/16 12:03:44;;;;;;;12.97;9.40;;;-0.80;60.20;;;;;;5074921;28;20483;-85
2021/01/16 12:06:39;;;;;;;13.10;9.73;;;-1.00;59.90;;;;;;5084843;28;20437;-85
2021/01/16 12:15:28;;;;;;;14.10;8.87;;;-0.40;60.00;;;;;;5070855;28;20455;-85
2021/01/16 12:17:55;;;;;;;13.77;9.30;;;-0.40;60.00;;;;;;5078242;28;20554;-85
2021/01/16 12:20:31;;;;;;;19.43;10.57;;;-0.60;59.90;;;;;;5076109;28;20464;-84
2021/01/16 12:23:02;;;;;;;13.80;9.90;;;-0.50;60.30;;;;;;5076720;28;20569;-84
2021/01/16 12:25:51;;;;;;;13.30;9.00;;;-0.40;60.00;;;;;;5077970;28;20495;-85
2021/01/16 12:31:06;;;;;;;15.53;11.07;;;-0.50;59.90;;;;;;5082251;28;20445;-85
2021/01/16 12:33:34;;;;;;;14.20;9.53;;;-0.60;60.30;;;;;;5081572;28;20538;-86
2021/01/16 12:36:11;;;;;;;15.40;10.63;;;-0.90;60.30;;;;;;5082620;28;20481;-85
2021/01/16 12:38:41;;;;;;;17.50;10.90;;;-0.90;60.50;;;;;;5078168;28;20452;-86
2021/01/16 12:41:07;;;;;;;17.90;11.60;;;-0.80;61.00;;;;;;5070686;28;20439;-86
2021/01/16 12:43:35;;;;;;;15.00;10.80;;;-0.80;61.40;;;;;;5075099;28;20469;-86
2021/01/16 12:46:12;;;;;;;17.07;10.23;;;-0.90;60.30;;;;;;5076725;28;20464;-85
2021/01/16 12:48:42;;;;;;;14.63;10.27;;;-0.80;60.90;;;;;;5070042;28;20469;-85
2021/01/16 12:51:14;;;;;;;13.67;8.77;;;;;;;;;;5071935;28;20688;-85
2021/01/16 12:53:43;;;;;;;20.03;10.00;;;-1.00;58.60;;;;;;5073674;28;20464;-85
2021/01/16 12:56:19;;;;;;;11.57;8.37;;;-0.90;58.60;;;;;;5070766;28;20447;-86
2021/01/16 12:59:01;;;;;;;16.30;10.40;;;-0.80;58.80;;;;;;5081328;28;20452;-86
2021/01/16 13:01:30;;;;;;;13.00;9.30;;;-0.70;58.90;;;;;;5079162;28;20451;-88
2021/01/16 13:03:59;;;;;;;14.27;10.00;;;-0.60;58.50;;;;;;5069667;28;20480;-87
2021/01/16 13:06:29;;;;;;;12.40;8.50;;;-0.40;58.40;;;;;;5077855;28;20697;-82
2021/01/16 13:08:56;;;;;;;12.73;9.10;;;-0.50;57.70;;;;;;5074259;28;20448;-83
2021/01/16 13:11:26;;;;;;;12.13;8.67;;;-0.60;57.70;;;;;;5074848;28;20479;-84